Time,TemperatureF,DewpointF,PressureIn,WindDirection,WindDirectionDegrees,WindSpeedMPH,WindSpeedGustMPH,Humidity,HourlyPrecipIn,Conditions,Clouds,dailyrainin,SoftwareType,DateUTC
2013-07-30 00:04:00,69.3,63.2,0.00,North,0,0.0,0.0,81,0.00,,,0.00,WUHU21623XXSP,2013-07-30 04:04:00,
2013-07-30 00:09:00,69.1,63.0,0.00,North,0,0.0,0.0,82,0.00,,,0.00,WUHU21623XXSP,2013-07-30 04:09:00,
2013-07-30 00:14:00,68.9,63.2,0.00,North,0,0.0,0.0,82,0.00,,,0.00,WUHU21623XXSP,2013-07-30 04:14:00,
2013-07-30 00:19:00,68.9,63.2,0.00,North,0,0.0,0.0,82,0.00,,,0.00,WUHU21623XXSP,2013-07-30 04:19:00,
2013-07-30 00:24:00,68.7,63.0,0.00,North,0,0.0,0.0,82,0.00,,,0.00,WUHU21623XXSP,2013-07-30 04:24:00,
2013-07-30 00:29:00,68.5,63.0,0.00,North,0,0.0,0.0,82,0.00,,,0.00,WUHU21623XXSP,2013-07-30 04:29:00,
2013-07-30 00:34:00,68.7,63.0,0.00,North,0,0.0,0.0,82,0.00,,,0.00,WUHU21623XXSP,2013-07-30 04:34:00,
2013-07-30 00:39:00,68.5,62.8,0.00,North,0,0.0,0.0,82,0.00,,,0.00,WUHU21623XXSP,2013-07-30 04:39:00,
2013-07-30 00:44:00,68.5,62.8,0.00,North,0,0.0,0.0,82,0.00,,,0.00,WUHU21623XXSP,2013-07-30 04:44:00,
2013-07-30 00:49:00,68.4,62.8,0.00,North,0,0.0,0.0,82,0.00,,,0.00,WUHU21623XXSP,2013-07-30 04:49:00,
2013-07-30 00:54:00,68.2,62.5,0.00,North,0,0.0,0.0,82,0.00,,,0.00,WUHU21623XXSP,2013-07-30 04:54:00,
2013-07-30 00:59:00,68.2,62.5,0.00,North,0,0.0,0.0,82,0.00,,,0.00,WUHU21623XXSP,2013-07-30 04:59:00,
2013-07-30 01:04:00,68.0,62.8,0.00,North,0,0.0,0.0,83,0.00,,,0.00,WUHU21623XXSP,2013-07-30 05:04:00,
2013-07-30 01:09:00,67.8,62.5,0.00,North,0,0.0,0.0,83,0.00,,,0.00,WUHU21623XXSP,2013-07-30 05:09:00,
2013-07-30 01:14:00,67.8,62.5,0.00,North,0,0.0,0.0,83,0.00,,,0.00,WUHU21623XXSP,2013-07-30 05:14:00,
2013-07-30 01:19:00,67.8,62.5,0.00,North,0,0.0,0.0,83,0.00,,,0.00,WUHU21623XXSP,2013-07-30 05:19:00,
2013-07-30 01:24:00,67.6,62.3,0.00,North,0,0.0,0.0,83,0.00,,,0.00,WUHU21623XXSP,2013-07-30 05:24:00,
2013-07-30 01:29:00,67.5,62.3,0.00,North,0,0.0,0.0,83,0.00,,,0.00,WUHU21623XXSP,2013-07-30 05:29:00,
2013-07-30 01:34:00,67.3,62.0,0.00,North,0,0.0,0.0,83,0.00,,,0.00,WUHU21623XXSP,2013-07-30 05:34:00,
2013-07-30 01:39:00,67.1,61.8,0.00,North,0,0.0,0.0,83,0.00,,,0.00,WUHU21623XXSP,2013-07-30 05:39:00,
2013-07-30 01:44:00,66.9,61.8,0.00,North,0,0.0,0.0,83,0.00,,,0.00,WUHU21623XXSP,2013-07-30 05:44:00,
2013-07-30 01:49:00,66.9,61.6,0.00,North,0,0.0,0.0,83,0.00,,,0.00,WUHU21623XXSP,2013-07-30 05:49:00,
2013-07-30 01:54:00,66.7,61.4,0.00,North,0,0.0,0.0,83,0.00,,,0.00,WUHU21623XXSP,2013-07-30 05:54:00,
2013-07-30 01:59:00,66.7,61.4,0.00,North,0,0.0,0.0,83,0.00,,,0.00,WUHU21623XXSP,2013-07-30 05:59:00,
2013-07-30 02:04:00,66.6,61.6,0.00,North,0,0.0,0.0,84,0.00,,,0.00,WUHU21623XXSP,2013-07-30 06:04:00,
2013-07-30 02:09:00,66.6,61.6,0.00,North,0,0.0,0.0,84,0.00,,,0.00,WUHU21623XXSP,2013-07-30 06:09:00,
2013-07-30 02:14:00,66.4,61.4,0.00,North,0,0.0,0.0,84,0.00,,,0.00,WUHU21623XXSP,2013-07-30 06:14:00,
2013-07-30 02:19:00,66.0,61.2,0.00,North,0,0.0,0.0,84,0.00,,,0.00,WUHU21623XXSP,2013-07-30 06:19:00,
2013-07-30 02:24:00,66.0,61.0,0.00,North,0,0.0,0.0,84,0.00,,,0.00,WUHU21623XXSP,2013-07-30 06:24:00,
2013-07-30 02:29:00,66.0,61.0,0.00,North,0,0.0,0.0,84,0.00,,,0.00,WUHU21623XXSP,2013-07-30 06:29:00,
2013-07-30 02:34:00,66.0,61.0,0.00,North,0,0.0,0.0,84,0.00,,,0.00,WUHU21623XXSP,2013-07-30 06:34:00,
2013-07-30 02:39:00,66.0,61.0,0.00,North,0,0.0,0.0,84,0.00,,,0.00,WUHU21623XXSP,2013-07-30 06:39:00,
2013-07-30 02:44:00,65.8,60.8,0.00,North,0,0.0,0.0,84,0.00,,,0.00,WUHU21623XXSP,2013-07-30 06:44:00,
2013-07-30 02:49:00,65.8,60.8,0.00,North,0,0.0,0.0,84,0.00,,,0.00,WUHU21623XXSP,2013-07-30 06:49:00,
2013-07-30 02:54:00,65.7,60.7,0.00,North,0,0.0,0.0,84,0.00,,,0.00,WUHU21623XXSP,2013-07-30 06:54:00,
2013-07-30 02:59:00,65.7,60.7,0.00,North,0,0.0,0.0,84,0.00,,,0.00,WUHU21623XXSP,2013-07-30 06:59:00,
2013-07-30 03:04:00,65.5,60.5,0.00,North,0,0.0,0.0,84,0.00,,,0.00,WUHU21623XXSP,2013-07-30 07:04:00,
2013-07-30 03:09:00,65.1,60.2,0.00,North,0,0.0,0.0,84,0.00,,,0.00,WUHU21623XXSP,2013-07-30 07:09:00,
2013-07-30 03:14:00,65.1,60.2,0.00,North,0,0.0,0.0,84,0.00,,,0.00,WUHU21623XXSP,2013-07-30 07:14:00,
2013-07-30 03:19:00,64.9,60.0,0.00,North,0,0.0,0.0,84,0.00,,,0.00,WUHU21623XXSP,2013-07-30 07:19:00,
2013-07-30 03:24:00,64.8,59.8,0.00,North,0,0.0,0.0,84,0.00,,,0.00,WUHU21623XXSP,2013-07-30 07:24:00,
2013-07-30 03:29:00,64.6,59.6,0.00,North,0,0.0,0.0,84,0.00,,,0.00,WUHU21623XXSP,2013-07-30 07:29:00,
2013-07-30 03:34:00,64.4,59.6,0.00,North,0,0.0,0.0,84,0.00,,,0.00,WUHU21623XXSP,2013-07-30 07:34:00,
2013-07-30 03:39:00,64.4,59.3,0.00,North,0,0.0,0.0,84,0.00,,,0.00,WUHU21623XXSP,2013-07-30 07:39:00,
2013-07-30 03:44:00,64.4,59.6,0.00,North,0,0.0,0.0,84,0.00,,,0.00,WUHU21623XXSP,2013-07-30 07:44:00,
2013-07-30 03:49:00,64.2,59.3,0.00,North,0,0.0,0.0,84,0.00,,,0.00,WUHU21623XXSP,2013-07-30 07:49:00,
2013-07-30 03:54:00,64.2,59.3,0.00,North,0,0.0,0.0,84,0.00,,,0.00,WUHU21623XXSP,2013-07-30 07:54:00,
2013-07-30 03:59:00,64.2,59.3,0.00,North,0,0.0,0.0,84,0.00,,,0.00,WUHU21623XXSP,2013-07-30 07:59:00,
2013-07-30 04:04:00,64.0,59.1,0.00,North,0,0.0,0.0,85,0.00,,,0.00,WUHU21623XXSP,2013-07-30 08:04:00,
2013-07-30 04:09:00,64.0,59.5,0.00,North,0,0.0,0.0,84,0.00,,,0.00,WUHU21623XXSP,2013-07-30 08:09:00,
2013-07-30 04:14:00,64.0,59.1,0.00,North,0,0.0,0.0,84,0.00,,,0.00,WUHU21623XXSP,2013-07-30 08:14:00,
2013-07-30 04:19:00,63.7,58.9,0.00,North,0,0.0,0.0,84,0.00,,,0.00,WUHU21623XXSP,2013-07-30 08:19:00,
2013-07-30 04:24:00,63.7,58.7,0.00,North,0,0.0,0.0,84,0.00,,,0.00,WUHU21623XXSP,2013-07-30 08:24:00,
2013-07-30 04:29:00,63.5,58.7,0.00,North,0,0.0,0.0,84,0.00,,,0.00,WUHU21623XXSP,2013-07-30 08:29:00,
2013-07-30 04:34:00,63.3,58.6,0.00,North,0,0.0,0.0,84,0.00,,,0.00,WUHU21623XXSP,2013-07-30 08:34:00,
2013-07-30 04:39:00,63.3,58.7,0.00,North,0,0.0,0.0,85,0.00,,,0.00,WUHU21623XXSP,2013-07-30 08:39:00,
2013-07-30 04:44:00,63.1,58.5,0.00,North,0,0.0,0.0,85,0.00,,,0.00,WUHU21623XXSP,2013-07-30 08:44:00,
2013-07-30 04:49:00,63.0,58.4,0.00,North,0,0.0,0.0,85,0.00,,,0.00,WUHU21623XXSP,2013-07-30 08:49:00,
2013-07-30 04:54:00,62.8,58.4,0.00,North,0,0.0,0.0,85,0.00,,,0.00,WUHU21623XXSP,2013-07-30 08:54:00,
2013-07-30 04:59:00,62.8,58.2,0.00,North,0,0.0,0.0,85,0.00,,,0.00,WUHU21623XXSP,2013-07-30 08:59:00,
2013-07-30 05:04:00,62.8,58.2,0.00,North,0,0.0,0.0,85,0.00,,,0.00,WUHU21623XXSP,2013-07-30 09:04:00,
2013-07-30 05:09:00,62.8,58.2,0.00,North,0,0.0,0.0,85,0.00,,,0.00,WUHU21623XXSP,2013-07-30 09:09:00,
2013-07-30 05:14:00,62.4,57.8,0.00,North,0,0.0,0.0,85,0.00,,,0.00,WUHU21623XXSP,2013-07-30 09:14:00,
2013-07-30 05:19:00,62.4,57.8,0.00,North,0,0.0,0.0,85,0.00,,,0.00,WUHU21623XXSP,2013-07-30 09:19:00,
2013-07-30 05:24:00,62.4,57.8,0.00,North,0,0.0,0.0,85,0.00,,,0.00,WUHU21623XXSP,2013-07-30 09:24:00,
2013-07-30 05:29:00,62.2,57.6,0.00,North,0,0.0,0.0,85,0.00,,,0.44,WUHU21623XXSP,2013-07-30 09:29:00,
2013-07-30 05:34:00,62.2,57.6,0.00,North,0,0.0,0.0,85,0.00,,,0.44,WUHU21623XXSP,2013-07-30 09:34:00,
2013-07-30 05:39:00,62.2,57.6,0.00,North,0,0.0,0.0,85,0.00,,,0.44,WUHU21623XXSP,2013-07-30 09:39:00,
2013-07-30 05:44:00,62.2,57.6,0.00,North,0,0.0,0.0,85,0.00,,,0.44,WUHU21623XXSP,2013-07-30 09:44:00,
2013-07-30 05:54:00,61.9,57.3,0.00,North,0,0.0,0.0,85,5.20,,,0.44,WUHU21623XXSP,2013-07-30 09:54:00,
2013-07-30 05:59:00,61.9,57.3,0.00,North,0,0.0,0.0,85,5.20,,,0.44,WUHU21623XXSP,2013-07-30 09:59:00,
2013-07-30 06:04:00,61.9,57.3,0.00,North,0,0.0,0.0,85,5.20,,,0.44,WUHU21623XXSP,2013-07-30 10:04:00,
2013-07-30 06:09:00,61.9,57.3,0.00,North,0,0.0,0.0,85,5.20,,,0.44,WUHU21623XXSP,2013-07-30 10:09:00,
2013-07-30 06:14:00,61.9,57.3,0.00,North,0,0.0,0.0,85,5.20,,,0.44,WUHU21623XXSP,2013-07-30 10:14:00,
2013-07-30 06:19:00,62.1,57.5,0.00,North,0,0.0,0.0,85,5.20,,,0.97,WUHU21623XXSP,2013-07-30 10:19:00,
2013-07-30 06:24:00,61.9,57.4,0.00,North,0,0.0,0.0,85,5.20,,,0.97,WUHU21623XXSP,2013-07-30 10:24:00,
2013-07-30 06:29:00,61.7,57.2,0.00,North,0,0.0,0.0,85,5.20,,,0.97,WUHU21623XXSP,2013-07-30 10:29:00,
2013-07-30 06:34:00,61.7,57.2,0.00,North,0,0.0,0.0,85,5.20,,,0.97,WUHU21623XXSP,2013-07-30 10:34:00,
2013-07-30 06:44:00,61.7,57.1,0.00,North,0,0.0,0.0,85,5.20,,,0.97,WUHU21623XXSP,2013-07-30 10:44:00,
2013-07-30 06:49:00,61.7,57.1,0.00,North,0,0.0,0.0,85,5.20,,,0.97,WUHU21623XXSP,2013-07-30 10:49:00,
2013-07-30 06:54:00,61.5,57.0,0.00,North,0,0.0,0.0,85,5.20,,,0.97,WUHU21623XXSP,2013-07-30 10:54:00,
2013-07-30 06:59:00,61.5,57.0,0.00,North,0,0.0,0.0,85,5.20,,,0.97,WUHU21623XXSP,2013-07-30 10:59:00,
2013-07-30 07:04:00,61.5,57.0,0.00,North,0,0.0,0.0,85,5.20,,,0.97,WUHU21623XXSP,2013-07-30 11:04:00,
2013-07-30 07:09:00,61.5,57.0,0.00,North,0,0.0,0.0,85,5.20,,,0.97,WUHU21623XXSP,2013-07-30 11:09:00,
2013-07-30 07:14:00,61.5,57.0,0.00,North,0,0.0,0.0,85,0.00,,,0.97,WUHU21623XXSP,2013-07-30 11:14:00,
2013-07-30 07:19:00,61.7,57.0,0.00,North,0,0.0,0.0,85,0.00,,,0.97,WUHU21623XXSP,2013-07-30 11:19:00,
2013-07-30 07:24:00,61.7,57.1,0.00,North,0,0.0,0.0,85,0.00,,,0.97,WUHU21623XXSP,2013-07-30 11:24:00,
2013-07-30 07:29:00,61.7,57.5,0.00,North,0,0.0,0.0,86,0.00,,,0.97,WUHU21623XXSP,2013-07-30 11:29:00,
2013-07-30 07:34:00,61.9,57.5,0.00,North,0,0.0,0.0,86,0.00,,,0.97,WUHU21623XXSP,2013-07-30 11:34:00,
2013-07-30 07:39:00,61.9,57.7,0.00,North,0,0.0,0.0,86,0.00,,,0.97,WUHU21623XXSP,2013-07-30 11:39:00,
2013-07-30 07:44:00,62.2,58.0,0.00,North,0,0.0,0.0,86,0.00,,,0.97,WUHU21623XXSP,2013-07-30 11:44:00,
2013-07-30 07:49:00,62.4,58.0,0.00,North,0,0.0,0.0,86,0.00,,,0.97,WUHU21623XXSP,2013-07-30 11:49:00,
2013-07-30 07:54:00,62.8,58.4,0.00,North,0,0.0,0.0,86,0.00,,,0.97,WUHU21623XXSP,2013-07-30 11:54:00,
2013-07-30 07:59:00,63.1,58.5,0.00,North,0,0.0,0.0,86,0.00,,,0.97,WUHU21623XXSP,2013-07-30 11:59:00,
2013-07-30 08:04:00,63.1,59.2,0.00,North,0,0.0,0.0,87,0.00,,,0.97,WUHU21623XXSP,2013-07-30 12:04:00,
2013-07-30 08:09:00,63.5,59.1,0.00,North,0,0.0,0.0,87,0.00,,,0.97,WUHU21623XXSP,2013-07-30 12:09:00,
2013-07-30 08:19:00,63.7,59.4,0.00,North,0,0.0,0.0,86,0.00,,,0.97,WUHU21623XXSP,2013-07-30 12:19:00,
2013-07-30 08:24:00,64.0,60.1,0.00,North,0,0.0,0.0,86,0.00,,,0.97,WUHU21623XXSP,2013-07-30 12:24:00,
2013-07-30 08:30:00,64.2,60.0,0.00,North,0,0.0,0.0,86,0.00,,,0.97,WUHU21623XXSP,2013-07-30 12:30:00,
2013-07-30 08:35:00,64.2,60.0,0.00,North,0,0.0,0.0,86,0.00,,,0.97,WUHU21623XXSP,2013-07-30 12:35:00,
2013-07-30 08:40:00,64.6,60.7,0.00,North,0,0.0,0.0,87,0.00,,,0.97,WUHU21623XXSP,2013-07-30 12:40:00,
2013-07-30 08:45:00,64.9,60.8,0.00,North,0,0.0,0.0,87,0.00,,,0.97,WUHU21623XXSP,2013-07-30 12:45:00,
2013-07-30 08:50:00,65.1,61.2,0.00,North,0,0.0,0.0,87,0.00,,,0.97,WUHU21623XXSP,2013-07-30 12:50:00,
2013-07-30 08:55:00,65.8,61.5,0.00,North,0,0.0,0.0,87,0.00,,,0.97,WUHU21623XXSP,2013-07-30 12:55:00,
2013-07-30 09:00:00,66.0,61.8,0.00,North,0,0.0,0.0,87,0.00,,,0.97,WUHU21623XXSP,2013-07-30 13:00:00,
2013-07-30 09:05:00,66.0,62.0,0.00,North,0,0.0,0.0,87,0.00,,,0.97,WUHU21623XXSP,2013-07-30 13:05:00,
2013-07-30 09:10:00,66.4,62.0,0.00,North,0,0.0,0.0,86,0.00,,,0.97,WUHU21623XXSP,2013-07-30 13:10:00,
2013-07-30 09:15:00,66.4,62.0,0.00,North,0,0.0,0.0,86,0.00,,,0.97,WUHU21623XXSP,2013-07-30 13:15:00,
2013-07-30 09:20:00,66.7,62.0,0.00,North,0,0.0,0.0,86,0.00,,,0.97,WUHU21623XXSP,2013-07-30 13:20:00,
2013-07-30 09:25:00,66.7,62.4,0.00,North,0,0.0,0.0,86,0.00,,,0.97,WUHU21623XXSP,2013-07-30 13:25:00,
2013-07-30 09:30:00,67.3,62.4,0.00,North,0,0.0,0.0,86,0.00,,,0.97,WUHU21623XXSP,2013-07-30 13:30:00,
2013-07-30 09:35:00,67.3,62.9,0.00,North,0,0.0,0.0,86,0.00,,,0.97,WUHU21623XXSP,2013-07-30 13:35:00,
2013-07-30 09:40:00,67.6,63.3,0.00,North,0,0.0,0.0,86,0.00,,,0.97,WUHU21623XXSP,2013-07-30 13:40:00,
2013-07-30 09:45:00,67.8,63.3,0.00,North,0,0.0,0.0,86,0.00,,,0.97,WUHU21623XXSP,2013-07-30 13:45:00,
2013-07-30 09:50:00,67.8,63.5,0.00,North,0,0.0,0.0,86,0.00,,,0.97,WUHU21623XXSP,2013-07-30 13:50:00,
2013-07-30 09:55:00,68.2,63.6,0.00,North,0,0.0,0.0,86,0.00,,,0.97,WUHU21623XXSP,2013-07-30 13:55:00,
2013-07-30 10:00:00,68.4,63.8,0.00,North,0,0.0,0.0,86,0.00,,,0.97,WUHU21623XXSP,2013-07-30 14:00:00,
2013-07-30 10:05:00,68.4,64.0,0.00,North,0,0.0,0.0,86,0.00,,,0.97,WUHU21623XXSP,2013-07-30 14:05:00,
2013-07-30 10:10:00,69.6,65.0,0.00,North,0,0.0,0.0,85,0.00,,,0.97,WUHU21623XXSP,2013-07-30 14:10:00,
2013-07-30 10:15:00,70.2,65.0,0.00,North,0,0.0,0.0,85,0.00,,,0.97,WUHU21623XXSP,2013-07-30 14:15:00,
2013-07-30 10:20:00,70.9,65.9,0.00,North,0,0.0,0.0,85,0.00,,,0.97,WUHU21623XXSP,2013-07-30 14:20:00,
2013-07-30 10:25:00,71.2,66.5,0.00,North,0,0.0,0.0,83,0.00,,,0.97,WUHU21623XXSP,2013-07-30 14:25:00,
2013-07-30 10:30:00,71.8,66.0,0.00,North,0,0.0,0.0,82,0.00,,,0.97,WUHU21623XXSP,2013-07-30 14:30:00,
2013-07-30 10:35:00,71.8,66.0,0.00,North,0,0.0,0.0,79,0.00,,,0.97,WUHU21623XXSP,2013-07-30 14:35:00,
2013-07-30 10:40:00,72.5,65.6,0.00,North,0,0.0,0.0,79,0.00,,,0.97,WUHU21623XXSP,2013-07-30 14:40:00,
2013-07-30 10:45:00,73.4,65.4,0.00,North,0,0.0,0.0,76,0.00,,,0.97,WUHU21623XXSP,2013-07-30 14:45:00,
2013-07-30 10:50:00,73.8,65.8,0.00,North,0,0.0,0.0,76,0.00,,,0.97,WUHU21623XXSP,2013-07-30 14:50:00,
2013-07-30 10:55:00,73.8,65.8,0.00,North,0,0.0,0.0,76,0.00,,,0.97,WUHU21623XXSP,2013-07-30 14:55:00,
2013-07-30 11:00:00,73.8,65.8,0.00,North,0,0.0,0.0,76,0.00,,,0.97,WUHU21623XXSP,2013-07-30 15:00:00,
2013-07-30 11:05:00,73.8,65.8,0.00,North,0,0.0,0.0,76,0.00,,,0.97,WUHU21623XXSP,2013-07-30 15:05:00,
2013-07-30 11:10:00,73.8,65.8,0.00,North,0,0.0,0.0,76,0.00,,,0.97,WUHU21623XXSP,2013-07-30 15:10:00,
2013-07-30 11:23:00,74.8,64.4,0.00,North,0,0.0,0.0,70,0.00,,,0.97,WUHU21623XXSP,2013-07-30 15:23:00,
2013-07-30 11:28:00,74.8,64.4,0.00,North,0,0.0,0.0,70,0.00,,,0.97,WUHU21623XXSP,2013-07-30 15:28:00,
2013-07-30 11:33:00,74.8,64.4,0.00,North,0,0.0,0.0,70,0.00,,,0.97,WUHU21623XXSP,2013-07-30 15:33:00,
2013-07-30 11:38:00,75.0,64.6,0.00,North,0,0.0,0.0,70,0.00,,,0.97,WUHU21623XXSP,2013-07-30 15:38:00,
2013-07-30 11:43:00,75.0,64.6,0.00,North,0,0.0,0.0,69,0.00,,,0.97,WUHU21623XXSP,2013-07-30 15:43:00,
2013-07-30 11:48:00,75.0,63.3,0.00,North,0,0.0,0.0,67,0.00,,,0.97,WUHU21623XXSP,2013-07-30 15:48:00,
2013-07-30 11:53:00,75.0,63.3,0.00,North,0,0.0,0.0,65,0.00,,,0.97,WUHU21623XXSP,2013-07-30 15:53:00,
2013-07-30 11:58:00,75.4,62.8,0.00,North,0,0.0,0.0,67,0.00,,,0.97,WUHU21623XXSP,2013-07-30 15:58:00,
2013-07-30 12:03:00,75.4,63.6,0.00,North,0,0.0,0.0,66,0.00,,,0.97,WUHU21623XXSP,2013-07-30 16:03:00,
2013-07-30 12:08:00,75.6,63.2,0.00,North,0,0.0,0.0,66,0.00,,,0.97,WUHU21623XXSP,2013-07-30 16:08:00,
2013-07-30 12:13:00,75.6,61.6,0.00,North,0,0.0,0.0,62,0.00,,,0.97,WUHU21623XXSP,2013-07-30 16:13:00,
2013-07-30 12:18:00,75.6,61.6,0.00,North,0,0.0,0.0,63,0.00,,,0.97,WUHU21623XXSP,2013-07-30 16:18:00,
2013-07-30 12:23:00,75.6,62.1,0.00,North,0,0.0,0.0,63,0.00,,,0.97,WUHU21623XXSP,2013-07-30 16:23:00,
2013-07-30 12:28:00,75.6,62.1,0.00,North,0,0.0,0.0,63,0.00,,,0.97,WUHU21623XXSP,2013-07-30 16:28:00,
2013-07-30 12:33:00,75.6,62.1,0.00,North,0,0.0,0.0,63,0.00,,,0.97,WUHU21623XXSP,2013-07-30 16:33:00,
2013-07-30 12:38:00,75.6,62.5,0.00,North,0,0.0,0.0,64,0.00,,,0.97,WUHU21623XXSP,2013-07-30 16:38:00,
2013-07-30 12:43:00,75.6,61.6,0.00,North,0,0.0,0.0,63,0.00,,,0.97,WUHU21623XXSP,2013-07-30 16:43:00,
2013-07-30 12:48:00,75.7,62.2,0.00,North,0,0.0,0.0,63,0.00,,,0.97,WUHU21623XXSP,2013-07-30 16:48:00,
2013-07-30 12:53:00,75.9,62.2,0.00,North,0,0.0,0.0,63,0.00,,,0.97,WUHU21623XXSP,2013-07-30 16:53:00,
2013-07-30 12:58:00,75.9,62.4,0.00,North,0,0.0,0.0,63,0.00,,,0.97,WUHU21623XXSP,2013-07-30 16:58:00,
2013-07-30 13:03:00,75.9,62.4,0.00,North,0,0.0,0.0,63,0.00,,,0.97,WUHU21623XXSP,2013-07-30 17:03:00,
2013-07-30 13:08:00,75.9,62.4,0.00,North,0,0.0,0.0,63,0.00,,,0.97,WUHU21623XXSP,2013-07-30 17:08:00,
2013-07-30 13:13:00,75.9,62.8,0.00,North,0,0.0,0.0,64,0.00,,,0.97,WUHU21623XXSP,2013-07-30 17:13:00,
2013-07-30 13:18:00,76.1,63.0,0.00,North,0,0.0,0.0,65,0.00,,,0.97,WUHU21623XXSP,2013-07-30 17:18:00,
2013-07-30 13:23:00,75.9,63.3,0.00,North,0,0.0,0.0,65,0.00,,,0.97,WUHU21623XXSP,2013-07-30 17:23:00,
2013-07-30 13:28:00,75.9,63.7,0.00,North,0,0.0,0.0,66,0.00,,,0.97,WUHU21623XXSP,2013-07-30 17:28:00,
2013-07-30 13:33:00,75.9,63.7,0.00,North,0,0.0,0.0,66,0.00,,,0.97,WUHU21623XXSP,2013-07-30 17:33:00,
2013-07-30 13:38:00,76.1,64.1,0.00,North,0,0.0,0.0,67,0.00,,,0.97,WUHU21623XXSP,2013-07-30 17:38:00,
2013-07-30 13:43:00,76.5,64.1,0.00,North,0,0.0,0.0,66,0.00,,,0.97,WUHU21623XXSP,2013-07-30 17:43:00,
2013-07-30 13:48:00,76.5,63.8,0.00,North,0,0.0,0.0,65,0.00,,,0.97,WUHU21623XXSP,2013-07-30 17:48:00,
2013-07-30 13:53:00,76.6,64.0,0.00,North,0,0.0,0.0,65,0.00,,,0.97,WUHU21623XXSP,2013-07-30 17:53:00,
2013-07-30 13:58:00,76.6,64.0,0.00,North,0,0.0,0.0,65,0.00,,,0.97,WUHU21623XXSP,2013-07-30 17:58:00,
2013-07-30 14:03:00,76.6,64.0,0.00,North,0,0.0,0.0,64,0.00,,,0.97,WUHU21623XXSP,2013-07-30 18:03:00,
2013-07-30 14:08:00,76.6,63.5,0.00,North,0,0.0,0.0,64,0.00,,,0.97,WUHU21623XXSP,2013-07-30 18:08:00,
2013-07-30 14:13:00,76.6,63.5,0.00,North,0,0.0,0.0,64,0.00,,,0.97,WUHU21623XXSP,2013-07-30 18:13:00,
2013-07-30 14:18:00,76.6,63.5,0.00,North,0,0.0,0.0,64,0.00,,,0.97,WUHU21623XXSP,2013-07-30 18:18:00,
2013-07-30 14:42:00,77.5,63.9,0.00,North,0,0.0,0.0,63,0.00,,,0.97,WUHU21623XXSP,2013-07-30 18:42:00,
2013-07-30 14:47:00,77.5,64.4,0.00,North,0,0.0,0.0,64,0.00,,,0.97,WUHU21623XXSP,2013-07-30 18:47:00,
2013-07-30 14:52:00,77.7,64.1,0.00,North,0,0.0,0.0,63,0.00,,,0.97,WUHU21623XXSP,2013-07-30 18:52:00,
2013-07-30 14:57:00,77.7,64.1,0.00,North,0,0.0,0.0,63,0.00,,,0.97,WUHU21623XXSP,2013-07-30 18:57:00,
2013-07-30 15:02:00,77.7,64.1,0.00,North,0,0.0,0.0,63,0.00,,,0.97,WUHU21623XXSP,2013-07-30 19:02:00,
2013-07-30 15:07:00,77.5,63.9,0.00,North,0,0.0,0.0,63,0.00,,,0.97,WUHU21623XXSP,2013-07-30 19:07:00,
2013-07-30 15:12:00,77.5,63.9,0.00,North,0,0.0,0.0,63,0.00,,,0.97,WUHU21623XXSP,2013-07-30 19:12:00,
2013-07-30 15:17:00,77.5,63.9,0.00,North,0,0.0,0.0,63,0.00,,,0.97,WUHU21623XXSP,2013-07-30 19:17:00,
2013-07-30 15:22:00,77.5,64.4,0.00,North,0,0.0,0.0,64,0.00,,,0.97,WUHU21623XXSP,2013-07-30 19:22:00,
2013-07-30 15:27:00,77.5,64.4,0.00,North,0,0.0,0.0,64,0.00,,,0.97,WUHU21623XXSP,2013-07-30 19:27:00,
2013-07-30 15:32:00,77.5,64.4,0.00,North,0,0.0,0.0,64,0.00,,,0.97,WUHU21623XXSP,2013-07-30 19:32:00,
2013-07-30 15:37:00,77.7,64.5,0.00,North,0,0.0,0.0,64,0.00,,,0.97,WUHU21623XXSP,2013-07-30 19:37:00,
2013-07-30 15:42:00,77.7,64.5,0.00,North,0,0.0,0.0,64,0.00,,,0.97,WUHU21623XXSP,2013-07-30 19:42:00,
2013-07-30 15:47:00,77.5,64.5,0.00,North,0,0.0,0.0,63,0.00,,,0.97,WUHU21623XXSP,2013-07-30 19:47:00,
2013-07-30 15:52:00,77.5,63.9,0.00,North,0,0.0,0.0,63,0.00,,,0.97,WUHU21623XXSP,2013-07-30 19:52:00,
2013-07-30 15:57:00,77.5,63.9,0.00,North,0,0.0,0.0,63,0.00,,,0.97,WUHU21623XXSP,2013-07-30 19:57:00,
2013-07-30 16:02:00,77.5,63.9,0.00,North,0,0.0,0.0,63,0.00,,,0.97,WUHU21623XXSP,2013-07-30 20:02:00,
2013-07-30 16:07:00,78.1,64.5,0.00,North,0,0.0,0.0,63,0.00,,,0.97,WUHU21623XXSP,2013-07-30 20:07:00,
2013-07-30 16:12:00,78.3,64.5,0.00,North,0,0.0,0.0,64,0.00,,,0.97,WUHU21623XXSP,2013-07-30 20:12:00,
2013-07-30 16:17:00,78.1,64.9,0.00,North,0,0.0,0.0,64,0.00,,,0.97,WUHU21623XXSP,2013-07-30 20:17:00,
2013-07-30 16:22:00,78.1,64.9,0.00,North,0,0.0,0.0,64,0.00,,,0.97,WUHU21623XXSP,2013-07-30 20:22:00,
2013-07-30 16:27:00,78.1,64.9,0.00,North,0,0.0,0.0,63,0.00,,,0.97,WUHU21623XXSP,2013-07-30 20:27:00,
2013-07-30 16:32:00,78.1,64.0,0.00,North,0,0.0,0.0,62,0.00,,,0.97,WUHU21623XXSP,2013-07-30 20:32:00,
2013-07-30 16:37:00,77.7,63.8,0.00,North,0,0.0,0.0,62,0.00,,,0.97,WUHU21623XXSP,2013-07-30 20:37:00,
2013-07-30 16:42:00,77.7,63.7,0.00,North,0,0.0,0.0,62,0.00,,,0.97,WUHU21623XXSP,2013-07-30 20:42:00,
2013-07-30 16:47:00,77.7,63.7,0.00,North,0,0.0,0.0,62,0.00,,,0.97,WUHU21623XXSP,2013-07-30 20:47:00,
2013-07-30 16:52:00,77.7,63.7,0.00,North,0,0.0,0.0,62,0.00,,,0.97,WUHU21623XXSP,2013-07-30 20:52:00,
2013-07-30 16:57:00,77.7,64.1,0.00,North,0,0.0,0.0,63,0.00,,,0.97,WUHU21623XXSP,2013-07-30 20:57:00,
2013-07-30 17:02:00,77.5,63.9,0.00,North,0,0.0,0.0,63,0.00,,,0.97,WUHU21623XXSP,2013-07-30 21:02:00,
2013-07-30 17:07:00,77.5,63.9,0.00,North,0,0.0,0.0,63,0.00,,,0.97,WUHU21623XXSP,2013-07-30 21:07:00,
2013-07-30 17:12:00,77.5,63.9,0.00,North,0,0.0,0.0,63,0.00,,,0.97,WUHU21623XXSP,2013-07-30 21:12:00,
2013-07-30 17:17:00,77.5,63.9,0.00,North,0,0.0,0.0,63,0.00,,,0.97,WUHU21623XXSP,2013-07-30 21:17:00,
2013-07-30 17:22:00,77.7,64.5,0.00,North,0,0.0,0.0,64,0.00,,,0.97,WUHU21623XXSP,2013-07-30 21:22:00,
2013-07-30 17:27:00,77.7,64.5,0.00,North,0,0.0,0.0,64,0.00,,,0.97,WUHU21623XXSP,2013-07-30 21:27:00,
2013-07-30 17:32:00,77.7,64.5,0.00,North,0,0.0,0.0,64,0.00,,,0.97,WUHU21623XXSP,2013-07-30 21:32:00,
2013-07-30 17:37:00,77.5,64.5,0.00,North,0,0.0,0.0,64,0.00,,,0.97,WUHU21623XXSP,2013-07-30 21:37:00,
2013-07-30 17:42:00,77.5,64.4,0.00,North,0,0.0,0.0,65,0.00,,,0.97,WUHU21623XXSP,2013-07-30 21:42:00,
2013-07-30 17:47:00,77.5,64.8,0.00,North,0,0.0,0.0,65,0.00,,,0.97,WUHU21623XXSP,2013-07-30 21:47:00,
2013-07-30 17:52:00,77.5,64.8,0.00,North,0,0.0,0.0,65,0.00,,,0.97,WUHU21623XXSP,2013-07-30 21:52:00,
2013-07-30 17:57:00,77.5,64.8,0.00,North,0,0.0,0.0,65,0.00,,,0.97,WUHU21623XXSP,2013-07-30 21:57:00,
2013-07-30 18:02:00,77.0,64.8,0.00,North,0,0.0,0.0,66,0.00,,,0.97,WUHU21623XXSP,2013-07-30 22:02:00,
2013-07-30 18:07:00,76.8,64.8,0.00,North,0,0.0,0.0,67,0.00,,,0.97,WUHU21623XXSP,2013-07-30 22:07:00,
2013-07-30 18:12:00,76.8,65.0,0.00,North,0,0.0,0.0,67,0.00,,,0.97,WUHU21623XXSP,2013-07-30 22:12:00,
2013-07-30 18:17:00,76.8,65.0,0.00,North,0,0.0,0.0,67,0.00,,,0.97,WUHU21623XXSP,2013-07-30 22:17:00,
2013-07-30 18:22:00,76.8,65.0,0.00,North,0,0.0,0.0,67,0.00,,,0.97,WUHU21623XXSP,2013-07-30 22:22:00,
2013-07-30 18:27:00,76.8,65.5,0.00,North,0,0.0,0.0,68,0.00,,,0.97,WUHU21623XXSP,2013-07-30 22:27:00,
2013-07-30 18:32:00,76.8,65.5,0.00,North,0,0.0,0.0,68,0.00,,,0.97,WUHU21623XXSP,2013-07-30 22:32:00,
2013-07-30 18:37:00,76.8,65.5,0.00,North,0,0.0,0.0,68,0.00,,,0.97,WUHU21623XXSP,2013-07-30 22:37:00,
2013-07-30 18:42:00,76.8,65.5,0.00,North,0,0.0,0.0,68,0.00,,,0.97,WUHU21623XXSP,2013-07-30 22:42:00,
2013-07-30 18:47:00,76.8,65.5,0.00,North,0,0.0,0.0,68,0.00,,,0.97,WUHU21623XXSP,2013-07-30 22:47:00,
2013-07-30 18:52:00,76.8,65.5,0.00,North,0,0.0,0.0,68,0.00,,,0.97,WUHU21623XXSP,2013-07-30 22:52:00,
2013-07-30 18:57:00,76.6,65.8,0.00,North,0,0.0,0.0,69,0.00,,,0.97,WUHU21623XXSP,2013-07-30 22:57:00,
2013-07-30 19:02:00,76.6,65.8,0.00,North,0,0.0,0.0,69,0.00,,,0.97,WUHU21623XXSP,2013-07-30 23:02:00,
2013-07-30 19:07:00,76.6,65.8,0.00,North,0,0.0,0.0,69,0.00,,,0.97,WUHU21623XXSP,2013-07-30 23:07:00,
2013-07-30 19:12:00,76.6,65.8,0.00,North,0,0.0,0.0,69,0.00,,,0.97,WUHU21623XXSP,2013-07-30 23:12:00,
2013-07-30 19:17:00,76.6,65.8,0.00,North,0,0.0,0.0,69,0.00,,,0.97,WUHU21623XXSP,2013-07-30 23:17:00,
2013-07-30 19:22:00,76.1,66.0,0.00,North,0,0.0,0.0,71,0.00,,,0.97,WUHU21623XXSP,2013-07-30 23:22:00,
2013-07-30 19:27:00,76.1,66.0,0.00,North,0,0.0,0.0,71,0.00,,,0.97,WUHU21623XXSP,2013-07-30 23:27:00,
2013-07-30 19:32:00,76.1,66.0,0.00,North,0,0.0,0.0,71,0.00,,,0.97,WUHU21623XXSP,2013-07-30 23:32:00,
2013-07-30 19:42:00,75.9,66.3,0.00,North,0,0.0,0.0,72,0.00,,,0.97,WUHU21623XXSP,2013-07-30 23:42:00,
2013-07-30 19:47:00,75.9,66.3,0.00,North,0,0.0,0.0,72,0.00,,,0.97,WUHU21623XXSP,2013-07-30 23:47:00,
2013-07-30 19:52:00,75.7,66.3,0.00,North,0,0.0,0.0,72,0.00,,,0.97,WUHU21623XXSP,2013-07-30 23:52:00,
2013-07-30 19:57:00,75.7,66.5,0.00,North,0,0.0,0.0,73,0.00,,,0.97,WUHU21623XXSP,2013-07-30 23:57:00,
2013-07-30 20:02:00,75.7,66.5,0.00,North,0,0.0,0.0,73,0.00,,,0.97,WUHU21623XXSP,2013-07-31 00:02:00,
2013-07-30 20:07:00,75.7,66.5,0.00,North,0,0.0,0.0,73,0.00,,,0.97,WUHU21623XXSP,2013-07-31 00:07:00,
2013-07-30 20:12:00,75.7,66.5,0.00,North,0,0.0,0.0,73,0.00,,,0.97,WUHU21623XXSP,2013-07-31 00:12:00,
2013-07-30 20:17:00,75.7,66.5,0.00,North,0,0.0,0.0,73,0.00,,,0.97,WUHU21623XXSP,2013-07-31 00:17:00,
2013-07-30 20:22:00,75.7,66.5,0.00,North,0,0.0,0.0,73,0.00,,,0.97,WUHU21623XXSP,2013-07-31 00:22:00,
2013-07-30 20:31:00,74.8,66.4,0.00,North,0,0.0,0.0,75,0.00,,,0.97,WUHU21623XXSP,2013-07-31 00:31:00,
2013-07-30 20:36:00,74.3,65.9,0.00,North,0,0.0,0.0,75,0.00,,,0.97,WUHU21623XXSP,2013-07-31 00:36:00,
2013-07-30 20:41:00,74.1,65.7,0.00,North,0,0.0,0.0,75,0.00,,,0.97,WUHU21623XXSP,2013-07-31 00:41:00,
2013-07-30 20:46:00,73.9,65.7,0.00,North,0,0.0,0.0,76,0.00,,,0.97,WUHU21623XXSP,2013-07-31 00:46:00,
2013-07-30 20:51:00,73.6,65.8,0.00,North,0,0.0,0.0,76,0.00,,,0.97,WUHU21623XXSP,2013-07-31 00:51:00,
2013-07-30 20:56:00,73.6,65.6,0.00,North,0,0.0,0.0,76,0.00,,,0.97,WUHU21623XXSP,2013-07-31 00:56:00,
2013-07-30 21:02:00,73.2,65.2,0.00,North,0,0.0,0.0,77,0.00,,,0.97,WUHU21623XXSP,2013-07-31 01:02:00,
2013-07-30 21:07:00,73.0,65.4,0.00,North,0,0.0,0.0,77,0.00,,,0.97,WUHU21623XXSP,2013-07-31 01:07:00,
2013-07-30 21:12:00,72.9,65.2,0.00,North,0,0.0,0.0,77,0.00,,,0.97,WUHU21623XXSP,2013-07-31 01:12:00,
2013-07-30 21:17:00,72.7,65.2,0.00,North,0,0.0,0.0,77,0.00,,,0.97,WUHU21623XXSP,2013-07-31 01:17:00,
2013-07-30 21:22:00,72.7,65.1,0.00,North,0,0.0,0.0,77,0.00,,,0.97,WUHU21623XXSP,2013-07-31 01:22:00,
2013-07-30 21:27:00,72.5,64.9,0.00,North,0,0.0,0.0,77,0.00,,,0.97,WUHU21623XXSP,2013-07-31 01:27:00,
2013-07-30 21:32:00,72.5,65.3,0.00,North,0,0.0,0.0,78,0.00,,,0.97,WUHU21623XXSP,2013-07-31 01:32:00,
2013-07-30 21:37:00,72.3,65.1,0.00,North,0,0.0,0.0,78,0.00,,,0.97,WUHU21623XXSP,2013-07-31 01:37:00,
2013-07-30 21:42:00,72.1,65.1,0.00,North,0,0.0,0.0,79,0.00,,,0.97,WUHU21623XXSP,2013-07-31 01:42:00,
2013-07-30 21:47:00,72.0,65.1,0.00,North,0,0.0,0.0,79,0.00,,,0.97,WUHU21623XXSP,2013-07-31 01:47:00,
2013-07-30 21:52:00,71.4,64.6,0.00,North,0,0.0,0.0,79,0.00,,,0.97,WUHU21623XXSP,2013-07-31 01:52:00,
2013-07-30 21:57:00,71.4,64.6,0.00,North,0,0.0,0.0,79,0.00,,,0.97,WUHU21623XXSP,2013-07-31 01:57:00,
2013-07-30 22:02:00,71.2,64.6,0.00,North,0,0.0,0.0,79,0.00,,,0.97,WUHU21623XXSP,2013-07-31 02:02:00,
2013-07-30 22:07:00,71.2,64.6,0.00,North,0,0.0,0.0,79,0.00,,,0.97,WUHU21623XXSP,2013-07-31 02:07:00,
2013-07-30 22:12:00,71.2,64.4,0.00,North,0,0.0,0.0,79,0.00,,,0.97,WUHU21623XXSP,2013-07-31 02:12:00,
2013-07-30 22:17:00,71.2,64.4,0.00,North,0,0.0,0.0,79,0.00,,,0.97,WUHU21623XXSP,2013-07-31 02:17:00,
2013-07-30 22:22:00,71.1,64.6,0.00,North,0,0.0,0.0,80,0.00,,,0.97,WUHU21623XXSP,2013-07-31 02:22:00,
2013-07-30 22:27:00,71.1,64.6,0.00,North,0,0.0,0.0,80,0.00,,,0.97,WUHU21623XXSP,2013-07-31 02:27:00,
2013-07-30 22:32:00,70.5,64.0,0.00,North,0,0.0,0.0,80,0.00,,,0.97,WUHU21623XXSP,2013-07-31 02:32:00,
2013-07-30 22:37:00,70.3,64.0,0.00,North,0,0.0,0.0,80,0.00,,,0.97,WUHU21623XXSP,2013-07-31 02:37:00,
2013-07-30 22:42:00,70.3,63.9,0.00,North,0,0.0,0.0,80,0.00,,,0.97,WUHU21623XXSP,2013-07-31 02:42:00,
2013-07-30 22:47:00,70.3,63.9,0.00,North,0,0.0,0.0,80,0.00,,,0.97,WUHU21623XXSP,2013-07-31 02:47:00,
2013-07-30 22:52:00,70.0,64.0,0.00,North,0,0.0,0.0,81,0.00,,,0.97,WUHU21623XXSP,2013-07-31 02:52:00,
2013-07-30 22:57:00,70.0,63.8,0.00,North,0,0.0,0.0,81,0.00,,,0.97,WUHU21623XXSP,2013-07-31 02:57:00,
2013-07-30 23:02:00,69.8,63.8,0.00,North,0,0.0,0.0,81,0.00,,,0.97,WUHU21623XXSP,2013-07-31 03:02:00,
2013-07-30 23:07:00,70.0,63.8,0.00,North,0,0.0,0.0,81,0.00,,,0.97,WUHU21623XXSP,2013-07-31 03:07:00,
2013-07-30 23:12:00,69.8,63.7,0.00,North,0,0.0,0.0,81,0.00,,,0.97,WUHU21623XXSP,2013-07-31 03:12:00,
2013-07-30 23:17:00,69.6,63.7,0.00,North,0,0.0,0.0,81,0.00,,,0.97,WUHU21623XXSP,2013-07-31 03:17:00,
2013-07-30 23:22:00,69.6,63.8,0.00,North,0,0.0,0.0,82,0.00,,,0.97,WUHU21623XXSP,2013-07-31 03:22:00,
2013-07-30 23:27:00,69.6,63.8,0.00,North,0,0.0,0.0,82,0.00,,,0.97,WUHU21623XXSP,2013-07-31 03:27:00,
2013-07-30 23:32:00,69.6,63.8,0.00,North,0,0.0,0.0,82,0.00,,,0.97,WUHU21623XXSP,2013-07-31 03:32:00,
2013-07-30 23:37:00,69.4,63.8,0.00,North,0,0.0,0.0,82,0.00,,,0.97,WUHU21623XXSP,2013-07-31 03:37:00,
2013-07-30 23:42:00,69.4,63.7,0.00,North,0,0.0,0.0,82,0.00,,,0.97,WUHU21623XXSP,2013-07-31 03:42:00,
2013-07-30 23:47:00,69.4,63.7,0.00,North,0,0.0,0.0,82,0.00,,,0.97,WUHU21623XXSP,2013-07-31 03:47:00,
2013-07-30 23:52:00,69.4,63.7,0.00,North,0,0.0,0.0,82,0.00,,,0.97,WUHU21623XXSP,2013-07-31 03:52:00,
2013-07-30 23:57:00,69.4,63.7,0.00,North,0,0.0,0.0,82,0.00,,,0.97,WUHU21623XXSP,2013-07-31 03:57:00,